Time;durP1;ratioP1;P1;durP2;ratioP2;P2;SDS_P1;SDS_P2;PMS_P1;PMS_P2;Temp;Humidity;BMP_temperature;BMP_pressure;BME280_temperature;BME280_humidity;BME280_pressure;Samples;Min_cycle;Max_cycle;Signal;HPM_P1;HPM_P2
2021/08/30 00:00:43;;;;;;;23.90;12.57;;;;;;;15.71;100.00;102019.34;5228799;28;20017;-81
2021/08/30 00:03:14;;;;;;;25.73;12.73;;;;;;;15.60;100.00;102013.41;5229356;28;20029;-82
2021/08/30 00:05:44;;;;;;;25.75;12.45;;;;;;;15.65;100.00;102011.91;5229588;28;20042;-82
2021/08/30 00:08:15;;;;;;;28.83;13.65;;;;;;;15.69;100.00;102009.69;5229259;28;20111;-81
2021/08/30 00:10:45;;;;;;;23.90;13.52;;;;;;;15.61;100.00;102013.22;5228724;28;20024;-81
2021/08/30 00:13:16;;;;;;;21.85;11.70;;;;;;;15.63;100.00;102022.06;5228378;28;20029;-82
2021/08/30 00:15:46;;;;;;;29.33;13.07;;;;;;;15.71;100.00;102022.06;5228477;28;20021;-82
2021/08/30 00:18:17;;;;;;;21.55;11.93;;;;;;;15.72;100.00;102017.50;5224967;28;20090;-82
2021/08/30 00:20:47;;;;;;;29.45;12.45;;;;;;;15.67;100.00;102026.13;5228873;28;20108;-81
2021/08/30 00:23:18;;;;;;;20.80;12.00;;;;;;;15.72;100.00;102025.59;5229370;28;20502;-81
2021/08/30 00:25:49;;;;;;;20.83;11.38;;;;;;;15.79;100.00;102024.72;5211328;28;20032;-81
2021/08/30 00:28:19;;;;;;;25.35;13.50;;;;;;;15.77;100.00;102023.22;5227389;28;20473;-81
2021/08/30 00:30:50;;;;;;;25.85;12.10;;;;;;;15.80;100.00;102022.88;5225750;28;20029;-81
2021/08/30 00:33:20;;;;;;;21.45;11.80;;;;;;;15.84;100.00;102015.25;5225937;28;20036;-81
2021/08/30 00:35:51;;;;;;;25.70;12.52;;;;;;;15.86;100.00;102029.44;5225610;28;20029;-81
2021/08/30 00:38:21;;;;;;;21.75;11.98;;;;;;;15.83;100.00;102027.09;5225627;28;20576;-81
2021/08/30 00:40:52;;;;;;;22.98;12.65;;;;;;;15.78;100.00;102023.06;5224512;28;20052;-81
2021/08/30 00:43:22;;;;;;;19.60;11.65;;;;;;;15.79;100.00;102023.88;5229087;28;20033;-81
2021/08/30 00:45:52;;;;;;;23.05;12.00;;;;;;;15.84;100.00;102020.66;5211576;28;20037;-81
2021/08/30 00:48:23;;;;;;;28.45;12.70;;;;;;;15.94;100.00;102026.72;5220757;28;20116;-81
2021/08/30 00:50:55;;;;;;;25.77;13.10;;;;;;;15.92;100.00;102024.22;5228780;28;20032;-81
2021/08/30 00:53:26;;;;;;;26.08;12.95;;;;;;;15.93;100.00;102027.75;5229402;28;20469;-82
2021/08/30 00:55:56;;;;;;;27.70;13.23;;;;;;;15.93;100.00;102027.75;5221286;28;20021;-81
2021/08/30 00:58:27;;;;;;;23.20;12.95;;;;;;;15.96;100.00;102028.22;5223349;28;20025;-82
2021/08/30 01:00:57;;;;;;;25.85;12.15;;;;;;;15.91;100.00;102024.38;5229219;28;20032;-82
2021/08/30 01:03:28;;;;;;;23.25;13.40;;;;;;;15.90;100.00;102030.78;5211584;28;20152;-81
2021/08/30 01:06:09;;;;;;;26.67;14.13;;;;;;;15.85;100.00;102027.75;5229674;28;20033;-82
2021/08/30 01:08:48;;;;;;;26.08;13.15;;;;;;;15.83;100.00;102029.81;5229089;28;20079;-80
2021/08/30 01:11:23;;;;;;;23.40;13.48;;;;;;;15.80;100.00;102031.81;5229311;28;20553;-82
2021/08/30 01:14:00;;;;;;;23.37;13.00;;;;;;;15.84;100.00;102026.09;5229406;28;20033;-81
2021/08/30 01:16:32;;;;;;;26.40;13.00;;;;;;;15.82;100.00;102030.84;5216093;28;20037;-81
2021/08/30 01:19:11;;;;;;;29.10;13.00;;;;;;;15.86;100.00;102034.84;5229224;28;20017;-81
2021/08/30 01:21:42;;;;;;;23.08;12.45;;;;;;;15.84;100.00;102031.50;5228033;28;20029;-85
2021/08/30 01:24:15;;;;;;;22.95;12.13;;;;;;;15.88;100.00;102030.97;5225226;28;20037;-82
2021/08/30 01:26:49;;;;;;;28.30;13.60;;;;;;;15.74;100.00;102032.53;5228058;28;20037;-82
2021/08/30 01:29:29;;;;;;;27.85;14.85;;;;;;;15.69;100.00;102037.59;5214175;28;20025;-82
2021/08/30 01:32:32;;;;;;;26.45;13.48;;;;;;;15.75;100.00;102036.91;5228169;28;20376;-81
2021/08/30 01:35:06;;;;;;;27.25;13.50;;;;;;;15.72;100.00;102031.84;5212577;28;20017;-82
2021/08/30 01:37:39;;;;;;;24.73;12.40;;;;;;;15.82;100.00;102047.06;5226723;28;20131;-81
2021/08/30 01:40:13;;;;;;;24.92;13.50;;;;;;;15.76;100.00;102037.75;5206619;28;20282;-81
2021/08/30 01:42:45;;;;;;;24.88;13.48;;;;;;;15.75;100.00;102041.47;5224679;28;20025;-82
2021/08/30 01:45:20;;;;;;;23.00;11.88;;;;;;;15.70;100.00;102031.16;5224562;28;20444;-81
2021/08/30 01:48:03;;;;;;;28.83;13.75;;;;;;;15.66;100.00;102034.38;5208246;28;20031;-82
2021/08/30 01:50:37;;;;;;;28.80;13.95;;;;;;;15.73;100.00;102035.41;5224814;28;20036;-81
2021/08/30 01:53:09;;;;;;;27.80;14.20;;;;;;;15.66;100.00;102035.25;5224647;28;20410;-81
2021/08/30 01:55:44;;;;;;;25.80;13.93;;;;;;;15.73;100.00;102044.38;5224248;28;20507;-82
2021/08/30 02:00:54;;;;;;;25.30;13.90;;;;;;;15.71;100.00;102040.13;5193446;28;20387;-81
2021/08/30 02:03:29;;;;;;;29.00;15.00;;;;;;;15.74;100.00;102037.94;5224355;28;20040;-81
2021/08/30 02:06:02;;;;;;;26.73;13.80;;;;;;;15.69;100.00;102043.00;5207344;28;20031;-82
2021/08/30 02:08:36;;;;;;;30.02;13.80;;;;;;;15.66;100.00;102032.56;5226783;28;20068;-82
2021/08/30 02:11:10;;;;;;;28.45;14.77;;;;;;;15.63;100.00;102034.72;5208829;28;20104;-82
2021/08/30 02:13:41;;;;;;;33.25;14.75;;;;;;;15.60;100.00;102030.47;5227399;28;20024;-82
2021/08/30 02:16:11;;;;;;;29.33;14.52;;;;;;;15.63;100.00;102034.72;5209669;28;20025;-82
2021/08/30 02:18:58;;;;;;;28.85;13.65;;;;;;;15.59;100.00;102034.19;5226528;28;20029;-82
2021/08/30 02:21:33;;;;;;;25.70;13.70;;;;;;;15.59;100.00;102033.34;5208592;28;20025;-82
2021/08/30 02:24:05;;;;;;;28.50;15.73;;;;;;;15.57;100.00;102030.81;5217877;28;20040;-81
2021/08/30 02:26:50;;;;;;;29.33;15.63;;;;;;;15.60;100.00;102033.19;5226599;28;20302;-82
2021/08/30 02:29:24;;;;;;;25.50;14.23;;;;;;;15.56;100.00;102031.81;5226521;28;20497;-81
2021/08/30 02:31:58;;;;;;;28.90;14.53;;;;;;;15.57;100.00;102030.00;5227207;28;20044;-81
2021/08/30 02:34:33;;;;;;;32.17;14.27;;;;;;;15.58;100.00;102028.97;5227225;28;20082;-82
2021/08/30 02:37:06;;;;;;;25.30;12.75;;;;;;;15.57;100.00;102036.25;5227155;28;20025;-81
2021/08/30 02:39:37;;;;;;;22.35;13.50;;;;;;;15.62;100.00;102030.31;5225853;28;20052;-82
2021/08/30 02:42:09;;;;;;;31.25;13.45;;;;;;;15.62;100.00;102036.56;5224171;28;20040;-80
2021/08/30 02:44:41;;;;;;;25.10;13.02;;;;;;;15.62;100.00;102036.56;5206164;28;20371;-81
2021/08/30 02:47:13;;;;;;;27.08;14.02;;;;;;;15.68;100.00;102029.66;5210665;28;20021;-81
2021/08/30 02:49:45;;;;;;;31.45;13.68;;;;;;;15.61;100.00;102036.72;5223851;28;20032;-81
2021/08/30 02:52:19;;;;;;;25.58;13.75;;;;;;;15.64;100.00;102037.28;5223335;28;20461;-82
2021/08/30 02:54:52;;;;;;;28.50;13.77;;;;;;;15.66;100.00;102034.38;5222697;28;20033;-81
2021/08/30 02:57:24;;;;;;;30.80;13.18;;;;;;;15.62;100.00;102036.56;5222480;28;20048;-81
2021/08/30 02:59:56;;;;;;;24.75;13.50;;;;;;;15.65;100.00;102030.00;5222462;28;20493;-81
2021/08/30 03:02:27;;;;;;;24.40;12.98;;;;;;;15.66;100.00;102034.38;5222196;28;20036;-81
2021/08/30 03:04:59;;;;;;;23.05;12.27;;;;;;;15.59;100.00;102026.09;5222253;28;20063;-81
2021/08/30 03:07:31;;;;;;;26.02;13.30;;;;;;;15.60;100.00;102030.47;5222298;28;20131;-81
2021/08/30 03:10:01;;;;;;;23.90;13.30;;;;;;;15.61;100.00;102025.91;5221777;28;20108;-81
2021/08/30 03:12:38;;;;;;;30.10;13.32;;;;;;;15.57;100.00;102022.72;5222289;28;20447;-81
2021/08/30 03:15:14;;;;;;;22.73;12.63;;;;;;;15.63;100.00;102023.88;5221877;28;20040;-81
2021/08/30 03:17:45;;;;;;;25.05;12.02;;;;;;;15.58;100.00;102032.50;5209375;28;20463;-81
2021/08/30 03:20:20;;;;;;;32.05;12.23;;;;;;;15.58;100.00;102020.84;5221544;28;20598;-81
2021/08/30 03:22:52;;;;;;;;;;;;;;;15.53;100.00;102024.91;5205219;28;20033;-81
2021/08/30 03:25:27;;;;;;;24.00;12.60;;;;;;;15.54;100.00;102031.16;5221802;28;19915;-81
2021/08/30 03:28:00;;;;;;;27.38;12.43;;;;;;;15.51;100.00;102026.06;5222116;28;20328;-81
2021/08/30 03:30:32;;;;;;;30.98;13.30;;;;;;;15.53;100.00;102024.91;5222166;28;20021;-82
2021/08/30 03:33:03;;;;;;;26.00;12.98;;;;;;;15.52;100.00;102025.94;5223034;28;20021;-80
2021/08/30 03:35:34;;;;;;;26.70;12.93;;;;;;;15.51;100.00;102021.53;5223596;28;20028;-81
2021/08/30 03:38:06;;;;;;;27.98;13.98;;;;;;;15.47;100.00;102027.47;5205251;28;20033;-81
2021/08/30 03:40:38;;;;;;;28.75;13.90;;;;;;;15.46;100.00;102029.31;5223161;28;20020;-81
2021/08/30 03:43:10;;;;;;;25.88;12.75;;;;;;;15.59;100.00;102028.78;5223238;28;20044;-81
2021/08/30 03:45:41;;;;;;;22.73;12.38;;;;;;;15.53;100.00;102034.88;5223717;28;20056;-81
2021/08/30 03:48:12;;;;;;;24.80;13.35;;;;;;;15.66;100.00;102028.97;5223351;28;20059;-82
2021/08/30 03:50:44;;;;;;;25.90;13.18;;;;;;;15.65;100.00;102027.28;5223084;28;20017;-81
2021/08/30 03:53:18;;;;;;;28.40;13.43;;;;;;;15.61;100.00;102028.59;5223358;28;20162;-81
2021/08/30 03:55:50;;;;;;;26.50;13.73;;;;;;;15.58;100.00;102027.09;5223377;28;20029;-81
2021/08/30 03:58:21;;;;;;;27.52;14.02;;;;;;;15.53;100.00;102024.06;5208602;28;20033;-81
2021/08/30 04:00:53;;;;;;;22.95;13.18;;;;;;;15.57;100.00;102021.88;5210766;28;20032;-81
2021/08/30 04:03:24;;;;;;;29.27;13.63;;;;;;;15.59;100.00;102028.78;5224950;28;20032;-82
2021/08/30 04:05:55;;;;;;;28.33;13.98;;;;;;;15.54;100.00;102032.00;5226685;28;20457;-81
2021/08/30 04:08:26;;;;;;;21.98;12.32;;;;;;;15.58;100.00;102027.09;5226826;28;20039;-81
2021/08/30 04:10:59;;;;;;;23.98;12.13;;;;;;;15.55;100.00;102024.72;5226451;28;20028;-81
2021/08/30 04:13:30;;;;;;;25.10;13.32;;;;;;;15.55;100.00;102030.13;5226640;28;20082;-81
2021/08/30 04:16:01;;;;;;;29.05;13.80;;;;;;;15.51;100.00;102028.78;5226427;28;20021;-81
2021/08/30 04:18:31;;;;;;;25.42;12.50;;;;;;;15.57;100.00;102027.28;5226620;28;20123;-81
2021/08/30 04:21:02;;;;;;;26.58;13.55;;;;;;;15.53;100.00;102034.88;5226513;28;20021;-81
2021/08/30 04:23:33;;;;;;;25.75;13.75;;;;;;;15.54;100.00;102025.75;5226881;28;20033;-81
2021/08/30 04:26:03;;;;;;;29.33;14.20;;;;;;;15.51;100.00;102026.06;5226481;28;20067;-81
2021/08/30 04:28:34;;;;;;;27.25;13.50;;;;;;;15.45;100.00;102032.16;5226642;28;20079;-81
2021/08/30 04:31:04;;;;;;;20.38;11.57;;;;;;;15.48;100.00;102038.09;5226399;28;20450;-81
2021/08/30 04:33:34;;;;;;;23.95;12.10;;;;;;;15.59;100.00;102039.59;5226566;28;20449;-81
2021/08/30 04:36:05;;;;;;;28.77;13.90;;;;;;;15.52;100.00;102031.34;5226256;28;20116;-81
2021/08/30 04:38:36;;;;;;;28.20;13.60;;;;;;;15.55;100.00;102033.69;5226098;28;20033;-81
2021/08/30 04:41:06;;;;;;;27.35;13.18;;;;;;;15.47;100.00;102036.41;5225761;28;20024;-81
2021/08/30 04:43:36;;;;;;;29.25;12.85;;;;;;;15.42;100.00;102019.00;5226507;28;20025;-81
2021/08/30 04:46:08;;;;;;;25.70;12.57;;;;;;;15.38;100.00;102026.59;5208646;28;20050;-81
2021/08/30 04:48:38;;;;;;;27.17;12.85;;;;;;;15.42;100.00;102027.13;5225967;28;20025;-81
2021/08/30 04:51:09;;;;;;;24.75;11.88;;;;;;;15.32;100.00;102026.44;5226154;28;20040;-81
2021/08/30 04:53:39;;;;;;;22.30;12.32;;;;;;;15.25;100.00;102021.69;5225969;28;20036;-81
2021/08/30 04:56:10;;;;;;;29.85;12.88;;;;;;;15.17;100.00;102015.47;5225999;28;20029;-81
2021/08/30 04:58:40;;;;;;;24.30;12.43;;;;;;;15.00;100.00;102028.09;5225648;28;20047;-81
2021/08/30 05:01:11;;;;;;;25.85;13.73;;;;;;;14.87;100.00;102033.16;5225156;28;20502;-81
2021/08/30 05:03:41;;;;;;;28.80;13.45;;;;;;;14.75;100.00;102038.84;5226089;28;20032;-81
2021/08/30 05:06:11;;;;;;;32.00;14.05;;;;;;;14.72;100.00;102032.94;5225731;28;20055;-81
2021/08/30 05:08:42;;;;;;;31.15;14.10;;;;;;;14.72;100.00;102047.28;5225617;28;20067;-81
2021/08/30 05:11:12;;;;;;;31.10;13.98;;;;;;;14.70;100.00;102054.69;5225105;28;20025;-81
2021/08/30 05:13:43;;;;;;;36.15;13.55;;;;;;;14.65;100.00;102040.84;5217642;28;20032;-81
2021/08/30 05:16:14;;;;;;;31.63;14.38;;;;;;;14.61;100.00;102058.41;5219123;28;20045;-81
2021/08/30 05:18:44;;;;;;;33.63;15.68;;;;;;;14.56;100.00;102052.66;5225736;28;20021;-81
2021/08/30 05:21:15;;;;;;;31.58;14.55;;;;;;;14.53;100.00;102057.50;5225116;28;20487;-81
2021/08/30 05:23:45;;;;;;;25.35;13.82;;;;;;;14.55;100.00;102063.59;5225940;28;20386;-81
2021/08/30 05:26:16;;;;;;;31.95;15.05;;;;;;;14.60;100.00;102061.25;5221556;28;20061;-81
2021/08/30 05:28:46;;;;;;;37.85;15.18;;;;;;;14.67;100.00;102055.03;5216710;28;20449;-81
2021/08/30 05:31:17;;;;;;;29.30;14.95;;;;;;;14.68;100.00;102066.69;5225359;28;20099;-82
2021/08/30 05:33:47;;;;;;;35.45;15.75;;;;;;;14.71;100.00;102066.38;5225779;28;20048;-81
2021/08/30 05:36:18;;;;;;;28.63;14.23;;;;;;;14.75;100.00;102065.00;5207599;28;20074;-81
2021/08/30 05:38:50;;;;;;;26.42;13.45;;;;;;;14.87;100.00;102065.56;5212028;28;20036;-81
2021/08/30 05:41:21;;;;;;;26.40;12.50;;;;;;;14.98;100.00;102051.75;5217338;28;20483;-81
2021/08/30 05:43:51;;;;;;;30.40;13.23;;;;;;;14.97;100.00;102053.59;5219609;28;20029;-81
2021/08/30 05:46:22;;;;;;;36.03;14.25;;;;;;;14.94;100.00;102064.72;5225456;28;20522;-81
2021/08/30 05:48:52;;;;;;;30.10;13.65;;;;;;;15.05;100.00;102073.53;5226054;28;20498;-80
2021/08/30 05:51:23;;;;;;;27.02;12.52;;;;;;;15.02;100.00;102066.63;5225225;28;20025;-82
2021/08/30 05:53:53;;;;;;;27.25;12.57;;;;;;;15.15;100.00;102071.53;5225610;28;20024;-82
2021/08/30 05:56:24;;;;;;;29.02;12.80;;;;;;;15.16;100.00;102073.19;5207374;28;20498;-81
2021/08/30 05:58:54;;;;;;;35.30;12.63;;;;;;;15.21;100.00;102068.16;5224541;28;20521;-81
2021/08/30 06:01:25;;;;;;;32.35;14.15;;;;;;;15.25;100.00;102075.75;5224695;28;20013;-80
2021/08/30 06:03:55;;;;;;;30.98;13.57;;;;;;;15.35;100.00;102074.75;5223132;28;20492;-81
2021/08/30 06:06:26;;;;;;;22.60;12.50;;;;;;;15.53;100.00;102067.34;5210098;28;20406;-81
2021/08/30 06:08:56;;;;;;;27.25;11.90;;;;;;;15.63;100.00;102072.56;5223217;28;20150;-81
2021/08/30 06:11:27;;;;;;;30.17;13.43;;;;;;;15.86;100.00;102068.16;5222813;28;20017;-81
2021/08/30 06:13:57;;;;;;;26.20;12.68;;;;;;;15.78;100.00;102071.75;5215120;28;20475;-82
2021/08/30 06:16:28;;;;;;;22.95;11.93;;;;;;;15.83;100.00;102078.50;5215411;28;20033;-82
2021/08/30 06:18:58;;;;;;;30.17;13.43;;;;;;;15.98;100.00;102074.94;5212402;28;20249;-81
2021/08/30 06:21:29;;;;;;;26.33;13.13;;;;;;;15.98;100.00;102083.06;5222672;28;20020;-82
2021/08/30 06:23:59;;;;;;;33.00;11.95;;;;;;;16.07;100.00;102078.47;5222815;28;20116;-84
2021/08/30 06:26:30;;;;;;;21.50;12.05;;;;;;;16.18;100.00;102088.94;5222565;28;20066;-80
2021/08/30 06:29:00;;;;;;;29.20;13.18;;;;;;;16.14;100.00;102081.34;5222716;28;20033;-82
2021/08/30 06:31:31;;;;;;;24.55;12.60;;;;;;;16.11;100.00;102077.09;5222700;28;20021;-82
2021/08/30 06:34:03;;;;;;;29.38;12.57;;;;;;;16.20;100.00;102081.47;5222811;28;20025;-81
2021/08/30 06:36:33;;;;;;;27.73;13.45;;;;;;;16.35;100.00;102086.19;5223240;28;20021;-81
2021/08/30 06:39:04;;;;;;;27.00;13.38;;;;;;;16.28;100.00;102081.47;5222194;28;20079;-80
2021/08/30 06:41:34;;;;;;;24.27;12.77;;;;;;;16.29;100.00;102085.84;5222540;28;20470;-80
2021/08/30 06:44:05;;;;;;;27.10;12.35;;;;;;;16.37;100.00;102087.72;5223028;28;20570;-82
2021/08/30 06:46:36;;;;;;;27.50;14.02;;;;;;;16.31;100.00;102083.84;5223927;28;20029;-83
2021/08/30 06:49:06;;;;;;;27.55;14.40;;;;;;;16.29;100.00;102091.28;5205181;28;20029;-82
2021/08/30 06:51:37;;;;;;;27.88;13.98;;;;;;;16.43;100.00;102088.88;5215104;28;20687;-82
2021/08/30 06:54:07;;;;;;;30.25;14.43;;;;;;;16.34;100.00;102087.19;5223740;28;20104;-81
2021/08/30 06:56:38;;;;;;;33.10;15.13;;;;;;;16.38;100.00;102085.84;5223575;28;20102;-82
2021/08/30 06:59:08;;;;;;;32.92;14.50;;;;;;;16.37;100.00;102086.88;5223282;28;20079;-82
2021/08/30 07:01:39;;;;;;;25.80;14.02;;;;;;;16.63;100.00;102081.16;5223871;28;20129;-81
2021/08/30 07:04:10;;;;;;;26.92;13.85;;;;;;;16.78;100.00;102088.41;5223754;28;20044;-82
2021/08/30 07:06:40;;;;;;;24.48;13.57;;;;;;;16.76;100.00;102092.31;5224657;28;20025;-81
2021/08/30 07:09:11;;;;;;;29.20;13.75;;;;;;;16.92;100.00;102086.81;5223756;28;20025;-81
2021/08/30 07:11:41;;;;;;;29.48;13.85;;;;;;;16.94;100.00;102089.34;5223910;28;20474;-82
2021/08/30 07:14:12;;;;;;;33.00;14.85;;;;;;;16.97;100.00;102089.84;5223870;28;20029;-81
2021/08/30 07:16:43;;;;;;;26.58;13.77;;;;;;;16.97;100.00;102094.41;5218245;28;20550;-81
2021/08/30 07:19:13;;;;;;;37.38;15.35;;;;;;;16.91;100.00;102089.69;5201782;28;20025;-81
2021/08/30 07:21:44;;;;;;;26.70;14.70;;;;;;;16.85;100.00;102096.66;5183500;28;20052;-81
2021/08/30 07:24:15;;;;;;;28.65;13.98;;;;;;;16.90;100.00;102088.00;5215265;28;20028;-82
2021/08/30 07:26:45;;;;;;;28.73;15.55;;;;;;;16.84;100.00;102089.56;5222059;28;20029;-81
2021/08/30 07:29:16;;;;;;;31.10;14.20;;;;;;;16.93;100.00;102087.66;5222092;28;20187;-82
2021/08/30 07:31:46;;;;;;;29.98;15.50;;;;;;;16.98;100.00;102090.69;5205160;28;20049;-82
2021/08/30 07:34:17;;;;;;;30.73;15.38;;;;;;;17.04;100.00;102085.38;5221962;28;20025;-82
2021/08/30 07:36:47;;;;;;;35.60;15.50;;;;;;;17.13;100.00;102085.34;5204786;28;20395;-82
2021/08/30 07:39:18;;;;;;;32.33;16.00;;;;;;;17.07;100.00;102085.03;5225446;28;20083;-82
2021/08/30 07:41:49;;;;;;;32.88;16.50;;;;;;;17.13;100.00;102091.59;5225500;28;20103;-82
2021/08/30 07:44:21;;;;;;;31.27;15.35;;;;;;;17.14;100.00;102084.31;5208342;28;20449;-82
2021/08/30 07:46:52;;;;;;;30.02;15.95;;;;;;;17.06;100.00;102093.31;5225711;28;20457;-81
2021/08/30 07:49:26;;;;;;;32.85;15.95;;;;;;;17.16;100.00;102093.09;5205602;28;20037;-82
2021/08/30 07:51:56;;;;;;;33.05;17.33;;;;;;;17.33;100.00;102095.53;5200683;28;20100;-82
2021/08/30 07:54:27;;;;;;;35.03;17.00;;;;;;;17.60;100.00;102099.56;5205897;28;20037;-81
2021/08/30 07:56:57;;;;;;;33.15;16.23;;;;;;;17.57;100.00;102102.66;5185601;28;20021;-82
2021/08/30 07:59:28;;;;;;;34.28;15.23;;;;;;;17.72;100.00;102097.28;5225656;28;20028;-82
2021/08/30 08:01:58;;;;;;;29.13;16.30;;;;;;;17.93;100.00;102099.31;5225873;28;20033;-82
2021/08/30 08:04:29;;;;;;;31.80;16.02;;;;;;;17.98;100.00;102099.59;5214802;28;20069;-83
2021/08/30 08:06:59;;;;;;;34.83;16.17;;;;;;;18.10;100.00;102110.84;5184337;28;20053;-84
2021/08/30 08:09:30;;;;;;;30.77;16.50;;;;;;;18.12;100.00;102111.47;5217931;28;20055;-82
2021/08/30 08:12:01;;;;;;;31.52;15.48;;;;;;;18.25;100.00;102122.56;5226317;28;20032;-82
2021/08/30 08:14:32;;;;;;;36.58;16.48;;;;;;;18.34;100.00;102117.91;5224076;28;20017;-82
2021/08/30 08:17:05;;;;;;;37.47;16.80;;;;;;;18.46;100.00;102108.22;5223691;28;20103;-83
2021/08/30 08:19:36;;;;;;;32.20;16.30;;;;;;;18.48;100.00;102113.50;5206227;28;20051;-81
2021/08/30 08:22:06;;;;;;;31.38;15.30;;;;;;;18.63;100.00;102117.06;5224221;28;20372;-82
2021/08/30 08:24:37;;;;;;;27.67;14.88;;;;;;;18.76;100.00;102119.97;5223855;28;20029;-82
2021/08/30 08:27:07;;;;;;;29.70;15.05;;;;;;;19.03;100.00;102120.31;5223974;28;20516;-82
2021/08/30 08:29:38;;;;;;;29.33;14.77;;;;;;;19.12;100.00;102117.25;5224126;28;20025;-83
2021/08/30 08:32:08;;;;;;;29.77;15.48;;;;;;;19.11;100.00;102120.16;5224064;28;20111;-82
2021/08/30 08:34:39;;;;;;;25.70;15.15;;;;;;;18.96;100.00;102113.94;5206725;28;20021;-82
2021/08/30 08:37:09;;;;;;;30.80;14.82;;;;;;;19.26;100.00;102120.97;5211072;28;20060;-81
2021/08/30 08:39:40;;;;;;;27.05;14.15;;;;;;;19.19;100.00;102125.50;5222815;28;20029;-81
2021/08/30 08:42:10;;;;;;;31.00;15.57;;;;;;;19.34;100.00;102125.47;5211617;28;20029;-82
2021/08/30 08:44:41;;;;;;;31.73;15.45;;;;;;;19.40;100.00;102124.69;5207585;28;20470;-82
2021/08/30 08:47:14;;;;;;;31.15;14.60;;;;;;;19.32;100.00;102112.03;5225511;28;20048;-82
2021/08/30 08:49:51;;;;;;;34.17;16.55;;;;;;;19.72;100.00;102122.50;5223658;28;20037;-82
2021/08/30 08:52:23;;;;;;;38.10;15.05;;;;;;;19.93;100.00;102119.75;5224570;28;20044;-82
2021/08/30 08:54:56;;;;;;;23.90;13.30;;;;;;;20.06;100.00;102127.19;5225035;28;20029;-83
2021/08/30 08:57:27;;;;;;;30.00;15.52;;;;;;;19.98;100.00;102120.00;5223190;28;20029;-83
2021/08/30 09:00:00;;;;;;;27.50;15.38;;;;;;;19.87;100.00;102117.81;5205266;28;20032;-83
2021/08/30 09:02:32;;;;;;;28.35;15.60;;;;;;;19.70;100.00;102125.41;5205776;28;20029;-84
2021/08/30 09:05:06;;;;;;;26.70;14.40;;;;;;;19.65;100.00;102125.16;5222479;28;20028;-82
2021/08/30 09:07:42;;;;;;;32.30;15.47;;;;;;;19.61;100.00;102121.97;5223434;28;20123;-82
2021/08/30 09:10:15;;;;;;;29.98;16.55;;;;;;;19.57;100.00;102130.69;5219626;28;20388;-83
2021/08/30 09:12:47;;;;;;;25.95;14.75;;;;;;;19.45;100.00;102130.38;5197186;28;20048;-82
2021/08/30 09:15:21;;;;;;;30.33;15.05;;;;;;;19.40;100.00;102133.69;5222586;28;20036;-82
2021/08/30 09:17:54;;;;;;;26.52;16.25;;;;;;;19.42;100.00;102128.03;5222896;28;20028;-82
2021/08/30 09:20:29;;;;;;;32.38;15.82;;;;;;;19.50;100.00;102122.47;5222980;28;20100;-82
2021/08/30 09:23:09;;;;;;;27.63;15.33;;;;;;;19.42;100.00;102128.03;5222917;28;20438;-82
2021/08/30 09:25:40;;;;;;;32.90;15.65;;;;;;;19.33;100.00;102130.06;5210872;28;20033;-83
2021/08/30 09:28:11;;;;;;;29.17;14.25;;;;;;;19.54;100.00;102118.34;5220879;28;20035;-83
2021/08/30 09:30:50;;;;;;;26.83;14.35;;;;;;;19.42;100.00;102123.44;5222818;28;20028;-83
2021/08/30 09:33:21;;;;;;;26.83;14.38;;;;;;;19.51;100.00;102131.47;5222609;28;20055;-82
2021/08/30 09:35:59;;;;;;;30.70;15.45;;;;;;;19.59;100.00;102121.34;5208947;28;20029;-83
2021/08/30 09:38:36;;;;;;;26.13;14.32;;;;;;;19.69;100.00;102125.63;5222015;28;20480;-82
2021/08/30 09:41:09;;;;;;;30.38;13.88;;;;;;;19.76;100.00;102127.34;5203896;28;20021;-83
2021/08/30 09:43:39;;;;;;;26.08;14.02;;;;;;;20.05;100.00;102134.50;5222347;28;20525;-82
2021/08/30 09:46:10;;;;;;;28.70;13.90;;;;;;;19.92;100.00;102129.78;5208577;28;20033;-83
2021/08/30 09:48:44;;;;;;;29.33;13.55;;;;;;;19.94;100.00;102135.06;5204112;28;20060;-82
2021/08/30 09:51:16;;;;;;;25.35;12.65;;;;;;;19.99;100.00;102121.69;5221932;28;20021;-82
2021/08/30 09:53:46;;;;;;;23.98;13.57;;;;;;;20.05;100.00;102123.63;5222711;28;20490;-84
2021/08/30 09:56:17;;;;;;;22.20;13.35;;;;;;;20.13;100.00;102128.06;5214828;28;20148;-81
2021/08/30 09:58:50;;;;;;;24.88;13.65;;;;;;;20.30;100.00;102131.34;5217136;28;20048;-81
2021/08/30 10:01:21;;;;;;;28.92;13.45;;;;;;;20.41;100.00;102128.88;5212989;28;20016;-82
2021/08/30 10:03:52;;;;;;;28.40;13.07;;;;;;;20.35;100.00;102132.41;5221732;28;20368;-83
2021/08/30 10:06:22;;;;;;;20.63;12.77;;;;;;;20.29;100.00;102125.06;5216751;28;20071;-81
2021/08/30 10:08:53;;;;;;;27.52;13.10;;;;;;;20.26;100.00;102130.03;5210533;28;20025;-81
2021/08/30 10:11:23;;;;;;;28.25;14.27;;;;;;;20.11;100.00;102135.59;5211672;28;20510;-81
2021/08/30 10:13:56;;;;;;;24.85;13.13;;;;;;;19.95;100.00;102130.44;5223464;28;20029;-82
2021/08/30 10:16:26;;;;;;;23.48;12.90;;;;;;;20.09;100.00;102133.09;5223266;28;20482;-80
2021/08/30 10:18:58;;;;;;;21.95;13.05;;;;;;;19.82;100.00;102128.44;5223151;28;20052;-81
2021/08/30 10:21:29;;;;;;;26.58;13.52;;;;;;;19.77;100.00;102129.03;5223413;28;20033;-81
2021/08/30 10:24:10;;;;;;;34.20;14.98;;;;;;;19.65;100.00;102122.44;5223395;28;20029;-82
2021/08/30 10:26:43;;;;;;;26.60;13.68;;;;;;;19.54;100.00;102120.22;5222797;28;20025;-81
2021/08/30 10:29:14;;;;;;;22.92;13.18;;;;;;;19.58;100.00;102121.53;5205910;28;20437;-81
2021/08/30 10:31:50;;;;;;;25.75;13.50;;;;;;;19.50;100.00;102125.19;5224268;28;20029;-83
2021/08/30 10:34:24;;;;;;;28.08;13.02;;;;;;;19.83;100.00;102119.22;5223631;28;20033;-84
2021/08/30 10:36:56;;;;;;;25.48;12.73;;;;;;;20.03;100.00;102117.53;5213594;28;20110;-83
2021/08/30 10:39:43;;;;;;;24.92;13.00;;;;;;;20.12;100.00;102115.47;5216439;28;20509;-82
2021/08/30 10:42:15;;;;;;;26.23;13.13;;;;;;;20.17;100.00;102105.66;5217783;28;20025;-83
2021/08/30 10:44:57;;;;;;;31.02;12.20;;;;;;;20.42;100.00;102116.09;5223705;28;20466;-83
2021/08/30 10:47:34;;;;;;;26.70;13.68;;;;;;;20.56;100.00;102119.78;5209828;28;20103;-82
2021/08/30 10:50:17;;;;;;;21.15;12.00;;;;;;;20.57;100.00;102118.72;5223266;28;20037;-82
2021/08/30 10:52:48;;;;;;;25.30;12.23;;;;;;;20.97;100.00;102116.19;5223930;28;20091;-82
2021/08/30 10:55:19;;;;;;;28.90;13.18;;;;;;;21.07;100.00;102113.91;5223412;28;20295;-80
2021/08/30 10:57:52;;;;;;;23.75;12.35;;;;;;;21.12;100.00;102114.97;5214244;28;20040;-82
2021/08/30 11:00:30;;;;;;;22.05;12.75;;;;;;;20.90;100.00;102113.44;5220716;28;20115;-82
2021/08/30 11:03:01;;;;;;;21.15;12.07;;;;;;;21.16;100.00;102118.13;5224359;28;20112;-84
2021/08/30 11:05:32;;;;;;;23.38;11.18;;;;;;;21.20;100.00;102119.41;5211100;28;20115;-83
2021/08/30 11:08:03;;;;;;;24.33;12.85;;;;;;;21.18;100.00;102114.13;5224212;28;20071;-83
2021/08/30 11:10:33;;;;;;;20.08;11.48;;;;;;;21.48;100.00;102116.53;5223532;28;20025;-83
2021/08/30 11:13:04;;;;;;;20.92;10.60;;;;;;;21.56;100.00;102113.63;5213271;28;20027;-83
2021/08/30 11:15:34;;;;;;;21.42;11.43;;;;;;;21.55;100.00;102120.16;5228194;28;20024;-84
2021/08/30 11:18:06;;;;;;;24.27;11.80;;;;;;;21.41;100.00;102107.53;5228449;28;20048;-82
2021/08/30 11:20:37;;;;;;;19.25;11.63;;;;;;;21.42;100.00;102112.75;5227614;28;20441;-84
2021/08/30 11:23:14;;;;;;;18.50;11.77;;;;;;;21.09;100.00;102117.28;5228160;28;20025;-83
2021/08/30 11:25:44;;;;;;;27.70;12.02;;;;;;;20.75;100.00;102113.59;5228057;28;20475;-83